Time;durP1;ratioP1;P1;durP2;ratioP2;P2;SDS_P1;SDS_P2;PMS_P1;PMS_P2;Temp;Humidity;BMP_temperature;BMP_pressure;BME280_temperature;BME280_humidity;BME280_pressure;Samples;Min_cycle;Max_cycle;Signal;HPM_P1;HPM_P2
2022/11/29 00:01:23;;;;;;;10.77;7.55;;;;;;;-2.46;95.85;103745.03;4974457;28;20031;-71
2022/11/29 00:03:49;;;;;;;11.95;7.60;;;;;;;-2.52;95.40;103735.50;4973694;28;20455;-73
2022/11/29 00:06:19;;;;;;;10.88;8.15;;;;;;;-2.46;95.82;103745.03;4973902;28;20042;-71
2022/11/29 00:08:45;;;;;;;11.95;7.68;;;;;;;-2.45;95.25;103743.31;4973129;28;20045;-71
2022/11/29 00:12:10;;;;;;;11.55;7.82;;;;;;;-2.45;95.28;103751.13;4972857;28;20033;-71
2022/11/29 00:14:02;;;;;;;27.42;18.88;;;;;;;-2.49;95.00;103745.06;4973108;28;20459;-71
2022/11/29 00:16:27;;;;;;;12.30;8.15;;;;;;;-2.52;95.11;103743.31;4974132;28;20043;-71
2022/11/29 00:18:53;;;;;;;12.13;7.93;;;;;;;-2.54;95.26;103742.47;4973067;28;20489;-70
2022/11/29 00:21:18;;;;;;;13.87;8.93;;;;;;;-2.52;95.48;103748.56;4973188;28;20655;-71
2022/11/29 00:23:44;;;;;;;10.47;8.17;;;;;;;-2.53;95.31;103733.75;4973190;28;20064;-71
2022/11/29 00:26:10;;;;;;;13.73;7.83;;;;;;;-2.52;95.27;103734.63;4975385;28;20032;-70
2022/11/29 00:28:36;;;;;;;11.00;7.83;;;;;;;-2.46;95.35;103746.78;4976417;28;20035;-70
2022/11/29 00:31:15;;;;;;;12.57;8.50;;;;;;;-2.51;95.86;103721.59;4977581;28;20035;-72
2022/11/29 00:33:41;;;;;;;11.10;8.05;;;;;;;-2.46;95.79;103728.50;4982796;28;20027;-71
2022/11/29 00:36:07;;;;;;;13.80;9.57;;;;;;;-2.42;94.66;103736.31;4988446;28;20046;-71
2022/11/29 00:38:32;;;;;;;14.20;8.17;;;;;;;-2.44;95.29;103732.84;4985274;28;20375;-70
2022/11/29 00:40:58;;;;;;;11.53;7.77;;;;;;;-2.49;94.92;103724.19;4987896;28;20034;-70
2022/11/29 00:43:24;;;;;;;11.05;7.78;;;;;;;-2.47;95.50;103732.88;4980923;28;20626;-71
2022/11/29 00:45:49;;;;;;;11.20;7.90;;;;;;;-2.45;95.54;103725.91;4976530;28;20149;-70
2022/11/29 00:48:15;;;;;;;15.77;9.03;;;;;;;-2.44;95.16;103730.25;4979740;28;20022;-69
2022/11/29 00:50:40;;;;;;;15.03;9.20;;;;;;;-2.45;94.85;103730.25;4979119;28;20057;-71
2022/11/29 00:53:06;;;;;;;13.20;8.47;;;;;;;-2.52;95.31;103732.03;4977155;28;20035;-71
2022/11/29 00:55:31;;;;;;;13.67;8.80;;;;;;;-2.55;96.01;103729.44;4976280;28;20537;-71
2022/11/29 00:57:57;;;;;;;13.53;7.47;;;;;;;-2.48;96.05;103741.56;4976407;28;20038;-71
2022/11/29 01:00:23;;;;;;;14.73;8.37;;;;;;;-2.42;96.22;103725.88;4976680;28;20027;-70
2022/11/29 01:02:48;;;;;;;14.50;9.23;;;;;;;-2.43;95.08;103726.75;4975845;28;20580;-71
2022/11/29 01:05:15;;;;;;;10.60;7.27;;;;;;;-2.44;95.52;103721.53;4975699;28;20129;-71
2022/11/29 01:07:40;;;;;;;12.77;8.90;;;;;;;-2.41;94.80;103717.19;4976620;28;20497;-72
2022/11/29 01:10:06;;;;;;;14.33;8.67;;;;;;;-2.41;94.88;103727.63;4976422;28;20258;-72
2022/11/29 01:12:35;;;;;;;11.23;8.13;;;;;;;-2.43;95.12;103718.94;4976101;28;20166;-71
2022/11/29 01:15:02;;;;;;;12.20;8.82;;;;;;;-2.48;94.99;103720.69;4975754;28;20262;-72
2022/11/29 01:17:28;;;;;;;13.18;8.35;;;;;;;-2.48;95.66;103723.31;4975761;28;20471;-72
2022/11/29 01:19:54;;;;;;;14.50;9.63;;;;;;;-2.44;95.54;103711.97;4975610;28;20053;-72
2022/11/29 01:22:19;;;;;;;11.97;8.00;;;;;;;-2.40;94.99;103712.81;4975922;28;20105;-72
2022/11/29 01:24:45;;;;;;;11.00;7.87;;;;;;;-2.39;94.93;103706.72;4976082;28;20375;-72
2022/11/29 01:27:11;;;;;;;14.90;8.90;;;;;;;-2.45;95.07;103710.25;4976222;28;20065;-72
2022/11/29 01:29:37;;;;;;;12.73;9.87;;;;;;;-2.43;95.46;103718.94;4959783;28;20455;-71
2022/11/29 01:32:03;;;;;;;12.60;8.93;;;;;;;-2.47;95.07;103721.56;4981257;28;20035;-70
2022/11/29 01:34:29;;;;;;;13.77;8.67;;;;;;;-2.50;95.59;103723.31;4982075;28;20022;-72
2022/11/29 01:36:54;;;;;;;13.03;8.33;;;;;;;-2.43;96.12;103710.22;4963602;28;20058;-70
2022/11/29 01:39:20;;;;;;;9.87;7.50;;;;;;;-2.40;95.08;103718.91;4981171;28;20467;-71
2022/11/29 01:41:45;;;;;;;17.60;9.60;;;;;;;-2.29;95.88;103716.25;4978855;28;20093;-72
2022/11/29 01:44:11;;;;;;;12.97;8.53;;;;;;;-2.22;95.02;103724.06;4977941;28;20030;-71
2022/11/29 01:46:39;;;;;;;10.27;7.60;;;;;;;-2.21;94.31;103722.31;4977914;28;20097;-71
2022/11/29 01:49:13;;;;;;;10.55;8.07;;;;;;;-2.15;94.14;103724.88;4975094;28;20030;-71
2022/11/29 01:51:41;;;;;;;13.68;8.68;;;;;;;-2.28;94.17;103715.38;4974907;28;20034;-72
2022/11/29 01:54:09;;;;;;;9.93;6.80;;;;;;;-2.33;94.74;103720.59;4957603;28;20356;-71
2022/11/29 01:56:36;;;;;;;11.17;7.70;;;;;;;-2.39;95.18;103731.09;4973485;28;20422;-71
2022/11/29 01:59:10;;;;;;;11.40;7.82;;;;;;;-2.37;95.36;103728.47;4974883;28;20258;-71
2022/11/29 02:01:36;;;;;;;25.40;9.77;;;;;;;-2.44;95.18;103732.84;4974714;28;20027;-71
2022/11/29 02:04:03;;;;;;;14.43;9.10;;;;;;;-2.46;95.41;103729.38;4974503;28;20566;-71
2022/11/29 02:06:29;;;;;;;15.45;8.43;;;;;;;-2.52;95.21;103718.97;4974824;28;20278;-71
2022/11/29 02:08:55;;;;;;;13.90;9.20;;;;;;;-2.55;95.11;103726.81;4974481;28;20088;-71
2022/11/29 02:11:24;;;;;;;12.10;8.73;;;;;;;-2.56;95.77;103732.91;4974916;28;20026;-72
2022/11/29 02:14:01;;;;;;;12.10;8.35;;;;;;;-2.57;96.16;103725.97;4975273;28;20034;-72
2022/11/29 02:16:40;;;;;;;13.65;9.18;;;;;;;-2.68;95.75;103702.50;4977357;28;20502;-72
2022/11/29 02:19:20;;;;;;;;;;;;;;;-2.41;95.95;103727.63;4977747;28;20026;-72
2022/11/29 02:21:55;;;;;;;11.60;7.65;;;;;;;-2.42;94.98;103731.09;4977602;28;19910;-71
2022/11/29 02:24:43;;;;;;;11.02;7.30;;;;;;;-2.46;95.27;103726.78;4977188;28;20130;-71
2022/11/29 02:27:53;;;;;;;13.07;9.27;;;;;;;-2.50;95.13;103720.72;4975269;28;20494;-71
2022/11/29 02:30:21;;;;;;;12.95;7.85;;;;;;;-2.50;95.41;103722.44;4963862;28;20646;-71
2022/11/29 02:32:55;;;;;;;15.30;8.87;;;;;;;-2.43;96.11;103724.16;4974192;28;20101;-72
2022/11/29 02:35:51;;;;;;;14.50;10.15;;;;;;;-2.31;95.52;103733.69;4974470;28;20266;-71
2022/11/29 02:38:53;;;;;;;13.15;9.43;;;;;;;-2.22;95.60;103724.06;4974297;28;20033;-72
2022/11/29 02:42:04;;;;;;;11.70;8.13;;;;;;;-2.16;95.01;103733.59;4973942;28;20034;-71
2022/11/29 02:44:35;;;;;;;13.23;8.93;;;;;;;-2.26;94.26;103724.94;4970805;28;20506;-71
2022/11/29 02:47:33;;;;;;;11.37;8.10;;;;;;;-2.32;95.31;103730.16;4974020;28;20022;-71
2022/11/29 02:50:08;;;;;;;11.68;8.45;;;;;;;-2.25;95.57;103734.50;4974070;28;20269;-71
2022/11/29 02:52:42;;;;;;;12.60;8.88;;;;;;;-2.13;95.11;103727.47;4973991;28;20026;-72
2022/11/29 02:55:20;;;;;;;11.23;8.53;;;;;;;-2.17;94.06;103725.75;4973327;28;20027;-71
2022/11/29 02:58:03;;;;;;;13.00;8.75;;;;;;;-2.14;94.83;103736.19;4973759;28;20301;-71
2022/11/29 03:00:29;;;;;;;13.97;9.47;;;;;;;-2.19;95.11;103729.25;4973796;28;20053;-71
2022/11/29 03:03:37;;;;;;;12.83;8.20;;;;;;;-2.29;95.02;103721.50;4973930;28;20766;-71
2022/11/29 03:06:25;;;;;;;14.02;9.43;;;;;;;-2.31;95.49;103721.50;4932820;29;20269;-71
2022/11/29 03:09:19;;;;;;;14.70;9.47;;;;;;;-2.27;94.80;103727.56;4973197;28;20050;-71
2022/11/29 03:12:06;;;;;;;12.77;9.13;;;;;;;-2.56;94.71;103670.28;4954738;28;20258;-72
2022/11/29 03:14:41;;;;;;;13.47;9.80;;;;;;;-2.21;95.16;103723.16;4973202;28;20261;-71
2022/11/29 03:17:25;;;;;;;12.40;9.23;;;;;;;-2.19;94.87;103728.38;4973577;28;20281;-71
2022/11/29 03:20:06;;;;;;;11.77;9.20;;;;;;;-2.22;95.25;103724.06;4981022;28;20047;-71
2022/11/29 03:23:01;;;;;;;12.38;9.10;;;;;;;-2.26;94.88;103727.56;4986753;28;20258;-70
2022/11/29 03:25:40;;;;;;;15.00;9.00;;;;;;;-2.36;95.42;103728.47;4968111;28;20030;-71
2022/11/29 03:28:13;;;;;;;11.32;8.43;;;;;;;-2.34;94.96;103718.88;4961492;28;20022;-73
2022/11/29 03:30:48;;;;;;;14.70;9.70;;;;;;;-2.32;95.51;103721.47;4973627;28;20035;-72
2022/11/29 03:33:42;;;;;;;14.18;9.65;;;;;;;-2.34;95.37;103718.88;4973461;28;20294;-71
2022/11/29 03:36:17;;;;;;;11.87;8.10;;;;;;;-2.26;95.50;103729.31;4973424;28;20027;-71
2022/11/29 03:38:45;;;;;;;12.77;9.13;;;;;;;-2.22;95.08;103739.72;4973239;28;20270;-71
2022/11/29 03:41:17;;;;;;;12.52;9.82;;;;;;;-2.17;94.67;103733.59;4973222;28;20041;-73
2022/11/29 03:44:11;;;;;;;12.93;9.03;;;;;;;-2.12;95.23;103739.66;4982210;28;20087;-71
2022/11/29 03:46:51;;;;;;;13.43;10.02;;;;;;;-2.15;94.63;103735.31;4977547;28;20332;-71
2022/11/29 03:49:21;;;;;;;15.57;10.07;;;;;;;-2.15;94.43;103724.88;4980054;28;20033;-71
2022/11/29 03:52:25;;;;;;;12.50;8.27;;;;;;;-2.10;94.42;103732.69;4982419;28;20037;-73
2022/11/29 03:55:19;;;;;;;13.87;8.37;;;;;;;-2.14;94.32;103741.41;4961179;28;20602;-72
2022/11/29 03:58:22;;;;;;;18.02;10.85;;;;;;;-2.20;94.72;103732.75;4968950;28;20285;-71
2022/11/29 04:01:11;;;;;;;12.77;8.25;;;;;;;-2.23;95.08;103737.13;4980801;28;20050;-72
2022/11/29 04:03:58;;;;;;;13.00;8.52;;;;;;;-2.34;94.98;103715.41;4983848;28;20050;-73
2022/11/29 04:06:58;;;;;;;16.17;10.52;;;;;;;-2.28;95.25;103736.28;4985628;28;20051;-72
2022/11/29 04:09:41;;;;;;;12.48;8.75;;;;;;;-2.33;95.19;103720.59;4983883;28;20038;-70
2022/11/29 04:12:39;;;;;;;17.00;12.07;;;;;;;-2.32;95.23;103732.78;4983564;28;20026;-73
2022/11/29 04:15:41;;;;;;;13.93;9.57;;;;;;;-2.33;95.04;103741.50;4968727;28;20247;-70
2022/11/29 04:18:45;;;;;;;16.97;11.53;;;;;;;-2.32;95.87;103745.84;4985708;28;20034;-74
2022/11/29 04:21:30;;;;;;;15.75;9.02;;;;;;;-2.28;95.85;103744.09;4987452;28;20277;-72
2022/11/29 04:24:33;;;;;;;13.25;9.95;;;;;;;-2.26;95.55;103745.84;4986222;28;20063;-71
2022/11/29 04:27:17;;;;;;;17.60;9.93;;;;;;;-2.34;95.47;103739.75;4982007;28;20038;-72
2022/11/29 04:29:45;;;;;;;15.60;10.23;;;;;;;-2.36;95.16;103745.88;4984507;28;20302;-74
2022/11/29 04:33:12;;;;;;;15.13;9.32;;;;;;;-2.36;96.04;103741.50;4982713;28;20265;-76
2022/11/29 04:35:54;;;;;;;15.65;10.30;;;;;;;-2.40;95.39;103742.41;4983082;28;20030;-82
2022/11/29 04:38:37;;;;;;;15.07;9.87;;;;;;;-2.53;95.78;103722.47;4962709;28;20139;-74
2022/11/29 04:41:40;;;;;;;15.27;9.70;;;;;;;-2.37;96.23;103749.34;4958311;28;20356;-76
2022/11/29 04:44:47;;;;;;;16.58;10.90;;;;;;;-2.23;95.75;103750.16;4976673;28;20270;-78
2022/11/29 04:47:35;;;;;;;14.43;10.63;;;;;;;-2.19;95.12;103751.88;4975328;28;20035;-75
2022/11/29 04:50:27;;;;;;;18.90;10.60;;;;;;;-2.26;95.37;103737.13;4976732;28;20061;-75
2022/11/29 04:53:29;;;;;;;20.80;10.95;;;;;;;-2.19;95.47;103765.81;4981626;28;20270;-78
2022/11/29 04:56:12;;;;;;;13.85;9.77;;;;;;;-2.20;95.49;103757.97;4979078;28;20030;-74
2022/11/29 04:58:58;;;;;;;16.90;10.03;;;;;;;-2.24;95.36;103751.03;4976585;28;20355;-76
2022/11/29 05:01:49;;;;;;;17.27;10.27;;;;;;;-2.14;95.10;103757.06;4976564;28;20269;-76
2022/11/29 05:04:22;;;;;;;14.60;10.38;;;;;;;-2.25;94.68;103741.47;4976289;28;20313;-76
2022/11/29 05:07:01;;;;;;;14.37;9.80;;;;;;;-2.21;94.70;103761.47;4976091;28;20105;-76
2022/11/29 05:09:46;;;;;;;17.38;10.95;;;;;;;-2.29;95.50;103768.47;4974791;28;20278;-77
2022/11/29 05:12:30;;;;;;;14.65;10.57;;;;;;;-2.38;95.32;103748.47;4976248;28;20049;-78
2022/11/29 05:15:17;;;;;;;17.75;11.25;;;;;;;-2.32;95.49;103769.31;4977613;28;20034;-78
2022/11/29 05:18:03;;;;;;;14.80;9.98;;;;;;;-2.63;95.80;103700.75;4976372;28;20046;-76
2022/11/29 05:20:48;;;;;;;18.60;11.13;;;;;;;-2.32;95.46;103756.28;4989426;28;20168;-76
2022/11/29 05:23:25;;;;;;;23.13;12.20;;;;;;;-2.35;95.78;103764.13;4986754;28;20030;-76
2022/11/29 05:26:00;;;;;;;13.63;9.77;;;;;;;-2.36;95.55;103761.53;4991476;28;20269;-76
2022/11/29 05:28:59;;;;;;;18.10;10.50;;;;;;;-2.32;96.16;103758.88;4992952;28;20022;-75
2022/11/29 05:31:27;;;;;;;18.20;10.70;;;;;;;-2.28;95.83;103762.38;4975885;28;20262;-76
2022/11/29 05:34:19;;;;;;;13.00;9.30;;;;;;;-2.27;96.14;103764.13;4989027;28;20085;-76
2022/11/29 05:37:08;;;;;;;15.63;10.45;;;;;;;-2.29;95.40;103768.47;4963707;28;20042;-77
2022/11/29 05:39:56;;;;;;;16.35;11.57;;;;;;;-2.38;95.75;103758.06;4965759;28;20026;-75
2022/11/29 05:42:52;;;;;;;21.65;12.00;;;;;;;-2.31;95.95;103773.72;4990630;28;20088;-75
2022/11/29 05:45:28;;;;;;;18.23;11.05;;;;;;;-2.31;95.93;103780.66;4993272;28;20041;-77
2022/11/29 05:48:36;;;;;;;16.60;9.85;;;;;;;-2.20;95.84;103778.88;4989460;28;20060;-77
2022/11/29 05:51:25;;;;;;;16.95;11.00;;;;;;;-2.27;95.45;103788.47;4991122;28;20096;-74
2022/11/29 05:54:09;;;;;;;15.85;10.88;;;;;;;-2.30;94.98;103793.72;4998662;28;20037;-73
2022/11/29 05:57:01;;;;;;;18.27;11.68;;;;;;;-2.35;95.13;103789.34;4987992;28;20038;-76
2022/11/29 05:59:29;;;;;;;20.30;12.50;;;;;;;-2.41;95.30;103787.66;4991304;28;20049;-75
2022/11/29 06:02:22;;;;;;;18.60;11.88;;;;;;;-2.47;95.80;103794.63;5001576;28;20113;-75
2022/11/29 06:05:12;;;;;;;17.02;11.63;;;;;;;-2.50;96.15;103790.28;4966420;28;20483;-74
2022/11/29 06:08:06;;;;;;;15.15;10.65;;;;;;;-2.52;96.38;103781.59;4992732;28;20130;-74
2022/11/29 06:10:56;;;;;;;18.33;12.55;;;;;;;-2.64;96.23;103773.78;4994276;28;20038;-77
2022/11/29 06:13:45;;;;;;;17.38;11.30;;;;;;;-2.52;96.64;103786.81;4991088;28;20046;-78
2022/11/29 06:16:29;;;;;;;16.83;10.98;;;;;;;-2.53;96.91;103805.97;5014431;28;20033;-77
2022/11/29 06:19:32;;;;;;;16.55;10.25;;;;;;;-2.46;96.92;103801.59;5015628;28;20029;-76
2022/11/29 06:22:35;;;;;;;17.17;10.63;;;;;;;-2.45;96.99;103804.19;5014444;28;20092;-78
2022/11/29 06:25:19;;;;;;;19.17;11.18;;;;;;;-2.42;96.08;103809.41;5014027;28;20107;-77
2022/11/29 06:28:05;;;;;;;18.02;10.65;;;;;;;-2.37;96.20;103818.06;5013893;28;20033;-77
2022/11/29 06:31:08;;;;;;;18.10;12.30;;;;;;;-2.36;95.61;103814.59;5013699;28;20032;-77
2022/11/29 06:33:55;;;;;;;19.08;11.35;;;;;;;-2.40;96.14;103818.09;5014804;28;20025;-78
2022/11/29 06:36:41;;;;;;;17.40;11.75;;;;;;;-2.36;95.93;103818.94;4980158;28;20061;-78
2022/11/29 06:39:09;;;;;;;16.35;11.05;;;;;;;-2.40;95.64;103832.88;5013865;28;20026;-78
2022/11/29 06:41:35;;;;;;;20.50;10.75;;;;;;;-2.44;96.02;103826.81;5014011;28;20454;-76
2022/11/29 06:44:01;;;;;;;16.85;11.15;;;;;;;-2.84;96.37;103769.53;5013707;28;20417;-77
2022/11/29 06:46:35;;;;;;;17.23;11.47;;;;;;;-2.50;96.78;103840.75;5014072;28;20065;-79
2022/11/29 06:49:06;;;;;;;18.47;11.93;;;;;;;-2.52;96.74;103839.88;4995852;28;20625;-76
2022/11/29 06:51:52;;;;;;;14.70;9.60;;;;;;;-2.50;96.40;103843.34;5013195;28;20277;-77
2022/11/29 06:54:20;;;;;;;16.48;10.95;;;;;;;-2.51;96.54;103843.38;4992810;28;20038;-77
2022/11/29 06:57:00;;;;;;;14.80;10.05;;;;;;;-2.58;96.74;103833.81;5013375;28;20080;-77
2022/11/29 06:59:45;;;;;;;16.33;12.10;;;;;;;-2.56;96.64;103856.41;5014538;28;20029;-77
2022/11/29 07:02:28;;;;;;;15.95;10.45;;;;;;;-2.62;96.83;103848.56;5014116;28;20133;-78
2022/11/29 07:05:04;;;;;;;15.57;9.77;;;;;;;-2.48;96.84;103865.97;5012429;28;20026;-75
2022/11/29 07:07:33;;;;;;;14.63;10.55;;;;;;;-2.54;96.09;103848.59;4999694;28;20412;-80
2022/11/29 07:10:01;;;;;;;20.17;11.60;;;;;;;-2.87;96.60;103786.91;5035902;28;20038;-75
2022/11/29 07:12:29;;;;;;;17.73;10.82;;;;;;;-2.47;96.92;103846.81;5036259;28;20273;-76
2022/11/29 07:14:57;;;;;;;18.63;11.50;;;;;;;-2.47;96.89;103847.69;5033864;28;20025;-77
2022/11/29 07:17:44;;;;;;;20.27;12.30;;;;;;;-2.49;96.64;103839.00;5019064;28;20068;-77
2022/11/29 07:20:37;;;;;;;17.00;11.03;;;;;;;-2.46;97.06;103844.22;5015162;28;20025;-77
2022/11/29 07:23:33;;;;;;;16.33;12.13;;;;;;;-2.39;97.12;103840.72;5014822;28;20249;-79
2022/11/29 07:26:45;;;;;;;19.08;11.85;;;;;;;-2.30;96.71;103842.44;5013727;28;20354;-76
2022/11/29 07:29:40;;;;;;;17.35;12.27;;;;;;;-2.33;95.50;103832.84;5013238;28;20030;-78
2022/11/29 07:32:29;;;;;;;16.45;11.20;;;;;;;-2.29;96.72;103836.34;5005744;28;20030;-76
2022/11/29 07:35:20;;;;;;;22.27;12.32;;;;;;;-2.29;96.53;103824.16;5013453;28;20069;-75
2022/11/29 07:37:56;;;;;;;18.87;12.70;;;;;;;-2.25;95.73;103832.84;5017366;28;20025;-76
2022/11/29 07:40:30;;;;;;;20.08;13.70;;;;;;;-2.49;95.85;103792.03;5016990;28;20260;-77
2022/11/29 07:43:17;;;;;;;19.10;11.40;;;;;;;-2.15;95.70;103833.69;5017188;28;20034;-80
2022/11/29 07:45:44;;;;;;;15.50;11.53;;;;;;;-2.17;95.24;103830.19;5017352;28;20470;-76
2022/11/29 07:48:11;;;;;;;17.25;12.45;;;;;;;-2.20;95.25;103831.09;5017017;28;20261;-76
2022/11/29 07:50:40;;;;;;;17.10;11.13;;;;;;;-2.22;95.68;103828.47;5014125;28;20048;-77
2022/11/29 07:53:05;;;;;;;17.83;12.07;;;;;;;-2.17;95.61;103825.84;5014338;28;20469;-77
2022/11/29 07:55:33;;;;;;;16.17;11.60;;;;;;;-2.05;95.29;103836.22;5014160;28;20052;-76
2022/11/29 07:57:59;;;;;;;19.48;12.20;;;;;;;-1.99;95.29;103836.22;5014768;28;20025;-79
2022/11/29 08:00:24;;;;;;;24.87;14.73;;;;;;;-1.94;94.41;103841.44;5014410;28;20026;-77
2022/11/29 08:02:50;;;;;;;25.07;13.00;;;;;;;-1.95;94.43;103840.56;5014181;28;20030;-77
2022/11/29 08:05:18;;;;;;;16.30;10.80;;;;;;;-1.91;94.31;103841.41;5013235;28;20050;-75
2022/11/29 08:07:50;;;;;;;18.50;12.40;;;;;;;-1.87;94.34;103841.38;5012670;28;20432;-76
2022/11/29 08:10:16;;;;;;;18.20;10.80;;;;;;;-1.81;94.13;103850.06;5012765;28;20356;-77
2022/11/29 08:12:47;;;;;;;16.00;10.83;;;;;;;-1.71;93.77;103863.09;5013368;28;20030;-77
2022/11/29 08:15:13;;;;;;;18.23;11.73;;;;;;;-1.73;93.26;103851.78;5013164;28;20097;-76
2022/11/29 08:17:39;;;;;;;18.93;11.27;;;;;;;-1.78;92.54;103852.66;5012658;28;20281;-76
2022/11/29 08:20:06;;;;;;;24.67;13.07;;;;;;;-1.87;93.24;103856.19;5012482;28;20256;-77
2022/11/29 08:22:32;;;;;;;19.23;11.80;;;;;;;-2.04;94.07;103840.56;4995278;28;20499;-75
2022/11/29 08:24:58;;;;;;;20.27;12.13;;;;;;;-2.00;93.75;103860.63;5012541;28;20265;-77
2022/11/29 08:27:24;;;;;;;19.40;13.20;;;;;;;-2.00;93.80;103862.34;5017218;28;20026;-76
2022/11/29 08:29:50;;;;;;;17.43;12.73;;;;;;;-2.05;94.63;103869.31;5027153;28;20268;-77
2022/11/29 08:32:16;;;;;;;19.50;12.73;;;;;;;-2.05;94.31;103870.19;5029835;28;20022;-76
2022/11/29 08:34:41;;;;;;;16.50;12.63;;;;;;;-2.02;94.42;103864.97;5005842;28;20061;-76
2022/11/29 08:37:07;;;;;;;19.33;12.73;;;;;;;-1.93;95.00;103856.22;5013839;28;20086;-75
2022/11/29 08:39:32;;;;;;;19.17;12.07;;;;;;;-1.97;94.21;103852.75;4995074;28;20068;-74
2022/11/29 08:41:58;;;;;;;19.93;12.37;;;;;;;-2.03;94.38;103863.22;5012686;28;20035;-77
2022/11/29 08:44:23;;;;;;;18.27;11.17;;;;;;;-2.09;95.05;103855.41;5012669;28;20029;-77
2022/11/29 08:49:33;;;;;;;18.90;12.63;;;;;;;-2.05;95.34;103856.25;5012270;28;20125;-77
2022/11/29 08:54:42;;;;;;;19.93;13.90;;;;;;;-2.03;95.30;103851.88;5015604;28;20030;-76
2022/11/29 08:57:08;;;;;;;20.93;13.67;;;;;;;-1.96;95.04;103851.00;5015745;28;20403;-77
2022/11/29 08:59:34;;;;;;;17.13;12.07;;;;;;;-1.95;94.79;103837.09;5017470;28;20097;-76
2022/11/29 09:02:00;;;;;;;21.13;14.20;;;;;;;-1.92;94.30;103837.06;5017168;28;20030;-77
2022/11/29 09:04:25;;;;;;;20.57;13.70;;;;;;;-1.82;94.67;103849.19;5017983;28;20034;-79
2022/11/29 09:06:52;;;;;;;22.70;14.00;;;;;;;-1.85;94.31;103844.00;5018544;28;20050;-77
2022/11/29 09:09:17;;;;;;;20.60;12.80;;;;;;;-1.77;93.76;103836.97;5006273;28;20037;-76
2022/11/29 09:11:46;;;;;;;30.27;16.03;;;;;;;-1.80;93.52;103846.56;5023888;28;20269;-76
2022/11/29 09:14:15;;;;;;;23.80;13.38;;;;;;;-1.89;94.42;103847.50;5002194;28;20494;-76
2022/11/29 09:16:41;;;;;;;25.27;15.97;;;;;;;-1.82;93.77;103854.41;5015473;28;20080;-77
2022/11/29 09:19:07;;;;;;;19.23;14.60;;;;;;;-1.80;94.34;103841.34;5015547;28;20364;-78
2022/11/29 09:21:35;;;;;;;20.83;13.10;;;;;;;-1.77;93.80;103842.19;5015350;28;20025;-76
2022/11/29 09:24:05;;;;;;;21.42;13.50;;;;;;;-1.82;93.86;103843.97;5015526;28;20125;-76
2022/11/29 09:26:34;;;;;;;20.47;13.97;;;;;;;-1.81;94.01;103855.28;5015490;28;20041;-76
2022/11/29 09:29:02;;;;;;;20.60;14.17;;;;;;;-1.84;93.72;103848.34;5013569;28;20268;-77
2022/11/29 09:31:29;;;;;;;22.23;12.88;;;;;;;-1.89;93.71;103827.47;5014939;28;20347;-76
2022/11/29 09:33:55;;;;;;;21.08;13.55;;;;;;;-1.77;93.62;103844.81;5015157;28;20472;-76
2022/11/29 09:36:20;;;;;;;23.87;15.03;;;;;;;-1.78;93.62;103842.19;5014863;28;20117;-76
2022/11/29 09:38:46;;;;;;;22.10;13.23;;;;;;;-1.82;93.85;103846.56;5014737;28;20044;-77
2022/11/29 09:41:40;;;;;;;23.97;13.57;;;;;;;-1.84;93.90;103861.41;5014569;28;20164;-76
2022/11/29 09:44:50;;;;;;;23.50;14.03;;;;;;;-1.74;94.25;103854.38;5014367;28;20034;-78
2022/11/29 09:47:43;;;;;;;21.23;12.93;;;;;;;-1.63;93.35;103855.19;5012739;28;20741;-76
2022/11/29 09:50:26;;;;;;;20.50;14.03;;;;;;;-1.80;93.44;103857.88;5014710;28;20590;-76
2022/11/29 09:53:14;;;;;;;21.03;14.03;;;;;;;-1.91;94.16;103851.84;4997500;28;20621;-77
2022/11/29 09:55:57;;;;;;;22.25;13.98;;;;;;;-1.90;93.82;103845.75;5015456;28;20344;-76
2022/11/29 09:58:32;;;;;;;25.00;14.67;;;;;;;-1.95;94.04;103839.69;5015027;28;20049;-78
2022/11/29 10:01:06;;;;;;;18.10;13.40;;;;;;;-2.09;94.76;103792.72;5015232;28;20252;-77
2022/11/29 10:03:41;;;;;;;23.47;12.80;;;;;;;-1.85;94.32;103822.22;5015037;28;20272;-75
2022/11/29 10:06:14;;;;;;;22.67;13.60;;;;;;;-1.72;94.27;103824.78;5015106;28;20315;-77
2022/11/29 10:08:50;;;;;;;26.07;14.93;;;;;;;-1.76;93.21;103823.03;5015206;28;20283;-77
2022/11/29 10:11:23;;;;;;;21.93;14.97;;;;;;;-1.77;93.38;103834.34;5014433;28;20754;-76
2022/11/29 10:14:16;;;;;;;25.80;15.37;;;;;;;-1.86;93.82;103821.34;5014162;28;20252;-77
2022/11/29 10:17:04;;;;;;;21.63;13.77;;;;;;;-1.78;93.64;103830.00;5013890;28;20280;-78
2022/11/29 10:19:35;;;;;;;19.35;13.85;;;;;;;-1.65;93.30;103836.06;5013670;28;20352;-76
2022/11/29 10:22:20;;;;;;;24.83;15.40;;;;;;;-1.64;93.21;103822.09;5014072;28;20084;-76
2022/11/29 10:24:51;;;;;;;21.80;13.83;;;;;;;-1.80;93.41;103816.09;5013903;28;20355;-77
2022/11/29 10:27:22;;;;;;;24.13;14.77;;;;;;;-1.84;93.77;103821.34;5014123;28;20280;-76
2022/11/29 10:29:52;;;;;;;21.67;14.40;;;;;;;-1.91;93.45;103807.44;5014270;28;20267;-77
2022/11/29 10:32:20;;;;;;;17.00;12.70;;;;;;;-1.87;93.94;103820.47;4999022;28;20324;-75
2022/11/29 10:34:47;;;;;;;22.75;14.68;;;;;;;-1.86;93.32;103810.91;5016830;28;20364;-77
2022/11/29 10:37:16;;;;;;;22.60;12.80;;;;;;;-2.01;93.40;103790.09;5020638;28;20061;-78
2022/11/29 10:39:51;;;;;;;20.20;14.03;;;;;;;-1.84;94.50;103816.97;4999798;28;20286;-77
2022/11/29 10:45:26;;;;;;;21.37;15.37;;;;;;;-1.73;93.56;103814.34;5016065;28;20799;-76
2022/11/29 10:47:54;;;;;;;25.47;14.77;;;;;;;-1.83;93.98;103808.28;5015070;28;20264;-77
2022/11/29 10:50:23;;;;;;;20.67;13.68;;;;;;;-1.84;93.70;103809.16;5015854;28;20320;-76
2022/11/29 10:52:54;;;;;;;20.23;13.83;;;;;;;-1.79;94.23;103809.97;4997145;28;20080;-77
2022/11/29 10:56:01;;;;;;;24.00;14.57;;;;;;;-1.76;93.70;103820.41;5013501;28;20375;-77
2022/11/29 10:58:30;;;;;;;28.90;15.50;;;;;;;-1.78;93.51;103810.84;4997178;28;20300;-78
2022/11/29 11:00:58;;;;;;;23.88;16.02;;;;;;;-1.79;93.35;103814.34;4995123;28;20372;-78
2022/11/29 11:03:32;;;;;;;19.15;14.32;;;;;;;-1.83;93.70;103816.09;5012901;28;20160;-77
2022/11/29 11:06:02;;;;;;;29.53;16.60;;;;;;;-1.92;94.08;103809.19;5012674;28;20490;-77
2022/11/29 11:08:30;;;;;;;23.23;13.83;;;;;;;-1.97;93.83;103828.38;4978683;28;20327;-77
2022/11/29 11:10:57;;;;;;;19.55;13.07;;;;;;;-2.01;94.09;103822.31;4995191;28;20721;-78
2022/11/29 11:13:25;;;;;;;24.00;15.17;;;;;;;-1.97;94.56;103825.78;4997644;28;20029;-78
2022/11/29 11:16:18;;;;;;;21.35;14.13;;;;;;;-1.95;94.58;103829.25;4994573;28;20308;-77
2022/11/29 11:18:45;;;;;;;24.20;15.20;;;;;;;-2.10;94.38;103805.78;5013080;28;20029;-81
2022/11/29 11:21:13;;;;;;;22.45;14.45;;;;;;;-1.96;94.27;103815.31;5013467;28;20260;-76
2022/11/29 11:23:51;;;;;;;23.42;16.58;;;;;;;-1.87;94.17;103827.44;5021305;28;20061;-77
2022/11/29 11:26:16;;;;;;;25.30;15.40;;;;;;;-1.91;94.26;103821.38;5020101;28;20037;-75
2022/11/29 11:29:02;;;;;;;22.03;14.03;;;;;;;-1.90;94.11;103819.63;5014845;28;20336;-75
2022/11/29 11:31:39;;;;;;;19.77;12.73;;;;;;;-1.87;93.91;103820.47;5013252;28;20028;-76
2022/11/29 11:34:33;;;;;;;23.10;14.87;;;;;;;-1.79;94.14;103828.28;5012857;28;20627;-75
2022/11/29 11:37:13;;;;;;;20.73;14.43;;;;;;;-1.81;93.76;103823.94;4995030;28;20423;-76
2022/11/29 11:39:40;;;;;;;22.60;13.87;;;;;;;-1.85;94.34;103823.09;4996052;28;20276;-75
2022/11/29 11:42:37;;;;;;;22.47;14.53;;;;;;;-1.85;94.33;103833.53;5012753;28;20613;-77
2022/11/29 11:45:08;;;;;;;20.37;14.57;;;;;;;-1.85;94.12;103827.44;5010154;28;20265;-76
2022/11/29 11:47:41;;;;;;;21.53;14.70;;;;;;;-1.87;94.22;103835.28;5013891;28;20257;-76
2022/11/29 11:50:12;;;;;;;21.13;14.07;;;;;;;-1.86;94.40;103826.56;5013537;28;20253;-76
2022/11/29 11:52:43;;;;;;;25.33;14.47;;;;;;;-1.80;94.16;103839.59;5015028;28;20256;-77
2022/11/29 11:55:55;;;;;;;20.73;13.97;;;;;;;-1.92;93.86;103826.63;5015620;28;20261;-76
2022/11/29 11:58:52;;;;;;;25.23;14.73;;;;;;;-2.31;94.80;103775.44;5015847;28;20296;-76
2022/11/29 12:01:38;;;;;;;18.92;13.93;;;;;;;-2.06;95.34;103828.41;5013471;28;20268;-79
2022/11/29 12:04:14;;;;;;;21.10;15.17;;;;;;;-2.05;95.06;103825.78;5015148;28;20022;-77
2022/11/29 12:07:01;;;;;;;25.60;15.45;;;;;;;-1.96;94.80;103835.34;5013148;28;20699;-77